Terminal Aerodrome Forecast
Issued by NWS

Current Version | Previous Version | Graphics & Text | Print | Product List | Glossary On
Versions: 1 2 3 4 5 6 7 8 9 10 11 12 13 14 15 16 17 18 19 20 21 22 23 24
000
FTUS41 KRLX 301522 AAA
TAFCKB
TAF AMD
KCKB 301522Z 3015/3112 22006KT P6SM SCT040 BKN200
     FM302200 23004KT P6SM VCTS SCT050CB
     FM310200 00000KT P6SM BKN050
     FM310500 00000KT 5SM BR BKN050
     FM311000 00000KT 6SM BR BKN150=

USA.gov is the U.S. government's official web portal to all federal, state and local government web resources and services.